ARG1219 SBBR-SABE
Flight info
| Callsign | ARG1219 |
|---|---|
| Flight time | N/A |
| Altitude | FL360 |
| Route | PAPI2A KUKOL UM532 CUARA UL324 KUKEN |
| Aircraft | B38M/M-SDE2E3FGHIRWXY/LB1 |
Departure
| Time | N/A |
|---|---|
| Airport | Presidente Juscelino Kubitschek International Airport (SBBR) |
Arrival
| Time | 2026-05-08 00:40 |
|---|---|
| Airport | Aeroparque Jorge Newbery (SABE) |
| Time | Latitude | Longitude | Altitude | Speed | Heading |
|---|---|---|---|---|---|
| 2026-05-07 23:30 | -26.92139 | -55.69318 | 32788 ft | 470 kts | 198° |
| 2026-05-07 23:31 | -26.95342 | -55.70007 | 32978 ft | 470 kts | 198° |
| 2026-05-07 23:31 | -26.98542 | -55.70696 | 33158 ft | 469 kts | 198° |
| 2026-05-07 23:31 | -27.01741 | -55.71385 | 33348 ft | 469 kts | 198° |
| 2026-05-07 23:31 | -27.04940 | -55.72074 | 33538 ft | 468 kts | 198° |
| 2026-05-07 23:32 | -27.08128 | -55.72761 | 33731 ft | 468 kts | 198° |
| 2026-05-07 23:32 | -27.11322 | -55.73450 | 33902 ft | 468 kts | 198° |
| 2026-05-07 23:32 | -27.14511 | -55.74138 | 34068 ft | 468 kts | 198° |
| 2026-05-07 23:32 | -27.17698 | -55.74826 | 34236 ft | 467 kts | 198° |
| 2026-05-07 23:33 | -27.20884 | -55.75515 | 34412 ft | 467 kts | 198° |
| 2026-05-07 23:33 | -27.24069 | -55.76203 | 34582 ft | 468 kts | 198° |
| 2026-05-07 23:33 | -27.27257 | -55.76893 | 34753 ft | 468 kts | 198° |
| 2026-05-07 23:33 | -27.30448 | -55.77583 | 34934 ft | 468 kts | 198° |
| 2026-05-07 23:34 | -27.33637 | -55.78274 | 35117 ft | 468 kts | 198° |
| 2026-05-07 23:34 | -27.36830 | -55.78966 | 35294 ft | 468 kts | 198° |
| 2026-05-07 23:34 | -27.40018 | -55.79657 | 35508 ft | 468 kts | 198° |
| 2026-05-07 23:34 | -27.43211 | -55.80350 | 35677 ft | 468 kts | 198° |
| 2026-05-07 23:35 | -27.49606 | -55.81739 | 35769 ft | 469 kts | 198° |
| 2026-05-07 23:35 | -27.55995 | -55.83129 | 35769 ft | 469 kts | 198° |
| 2026-05-07 23:36 | -27.62405 | -55.84526 | 35761 ft | 471 kts | 199° |
| 2026-05-07 23:36 | -27.68848 | -55.85931 | 35759 ft | 473 kts | 199° |
| 2026-05-07 23:37 | -27.75305 | -55.87341 | 35760 ft | 475 kts | 199° |
| 2026-05-07 23:37 | -27.81797 | -55.88760 | 35760 ft | 477 kts | 199° |
| 2026-05-07 23:38 | -27.88304 | -55.90184 | 35757 ft | 479 kts | 199° |
| 2026-05-07 23:38 | -27.94841 | -55.91617 | 35760 ft | 480 kts | 199° |
| 2026-05-07 23:39 | -28.01395 | -55.93055 | 35770 ft | 482 kts | 199° |
| 2026-05-07 23:39 | -28.07978 | -55.94502 | 35766 ft | 483 kts | 199° |
| 2026-05-07 23:40 | -28.14575 | -55.95953 | 35772 ft | 485 kts | 199° |
| 2026-05-07 23:40 | -28.21206 | -55.97414 | 35771 ft | 487 kts | 199° |
| 2026-05-07 23:41 | -28.27864 | -55.98882 | 35771 ft | 490 kts | 199° |
| 2026-05-07 23:41 | -28.34564 | -56.00361 | 35771 ft | 492 kts | 199° |
| 2026-05-07 23:42 | -28.41290 | -56.01848 | 35773 ft | 495 kts | 199° |
| 2026-05-07 23:42 | -28.48059 | -56.03347 | 35767 ft | 497 kts | 199° |
| 2026-05-07 23:43 | -28.54839 | -56.04850 | 35772 ft | 499 kts | 199° |
| 2026-05-07 23:43 | -28.61648 | -56.06361 | 35767 ft | 500 kts | 199° |
| 2026-05-07 23:44 | -28.68476 | -56.07879 | 35760 ft | 502 kts | 199° |
| 2026-05-07 23:44 | -28.75335 | -56.09406 | 35765 ft | 504 kts | 199° |
| 2026-05-07 23:45 | -28.82220 | -56.10940 | 35761 ft | 507 kts | 199° |
| 2026-05-07 23:45 | -28.89138 | -56.12484 | 35766 ft | 509 kts | 199° |
| 2026-05-07 23:46 | -28.96084 | -56.14036 | 35761 ft | 511 kts | 199° |
| 2026-05-07 23:46 | -29.03125 | -56.15610 | 35738 ft | 521 kts | 199° |
| 2026-05-07 23:47 | -29.10275 | -56.17214 | 35751 ft | 529 kts | 198° |
| 2026-05-07 23:47 | -29.17532 | -56.18843 | 35752 ft | 535 kts | 198° |
| 2026-05-07 23:48 | -29.24834 | -56.20484 | 35751 ft | 536 kts | 198° |
| 2026-05-07 23:48 | -29.32141 | -56.22129 | 35751 ft | 537 kts | 199° |
| 2026-05-07 23:49 | -29.39466 | -56.23780 | 35750 ft | 538 kts | 199° |
| 2026-05-07 23:49 | -29.46806 | -56.25437 | 35746 ft | 539 kts | 199° |
| 2026-05-07 23:50 | -29.54155 | -56.27098 | 35744 ft | 540 kts | 199° |
| 2026-05-07 23:50 | -29.61522 | -56.28766 | 35742 ft | 541 kts | 199° |
| 2026-05-07 23:51 | -29.68895 | -56.30438 | 35736 ft | 542 kts | 199° |
| 2026-05-07 23:51 | -29.76279 | -56.32114 | 35746 ft | 542 kts | 199° |
| 2026-05-07 23:52 | -29.83665 | -56.33794 | 35736 ft | 543 kts | 199° |
| 2026-05-07 23:52 | -29.91059 | -56.35478 | 35744 ft | 543 kts | 199° |
| 2026-05-07 23:53 | -29.97229 | -56.36885 | 35742 ft | 544 kts | 199° |
| 2026-05-07 23:53 | -30.05872 | -56.38860 | 35742 ft | 544 kts | 199° |
| 2026-05-07 23:54 | -30.13286 | -56.40555 | 35743 ft | 545 kts | 199° |
| 2026-05-07 23:54 | -30.20705 | -56.42256 | 35740 ft | 545 kts | 199° |
| 2026-05-07 23:55 | -30.28122 | -56.43958 | 35744 ft | 545 kts | 199° |
| 2026-05-07 23:55 | -30.35548 | -56.45665 | 35741 ft | 545 kts | 199° |
| 2026-05-07 23:56 | -30.42679 | -56.48113 | 35744 ft | 532 kts | 209° |
| 2026-05-07 23:56 | -30.49629 | -56.51057 | 35747 ft | 532 kts | 209° |
| 2026-05-07 23:57 | -30.56559 | -56.54020 | 35741 ft | 532 kts | 209° |
| 2026-05-07 23:57 | -30.63492 | -56.56990 | 35744 ft | 532 kts | 209° |
| 2026-05-07 23:58 | -30.70419 | -56.59974 | 35742 ft | 531 kts | 210° |
| 2026-05-07 23:58 | -30.77296 | -56.63050 | 35739 ft | 531 kts | 210° |
| 2026-05-07 23:59 | -30.84179 | -56.66122 | 35743 ft | 531 kts | 210° |
| 2026-05-07 23:59 | -30.91072 | -56.69198 | 35744 ft | 532 kts | 210° |
| 2026-05-08 00:00 | -30.97963 | -56.72277 | 35738 ft | 532 kts | 210° |
| 2026-05-08 00:00 | -31.04864 | -56.75365 | 35748 ft | 532 kts | 210° |
| 2026-05-08 00:01 | -31.11763 | -56.78457 | 35747 ft | 532 kts | 210° |
| 2026-05-08 00:01 | -31.18661 | -56.81554 | 35741 ft | 532 kts | 210° |
| 2026-05-08 00:02 | -31.25557 | -56.84654 | 35739 ft | 532 kts | 210° |
| 2026-05-08 00:02 | -31.32452 | -56.87759 | 35738 ft | 532 kts | 210° |
| 2026-05-08 00:03 | -31.39336 | -56.90864 | 35741 ft | 532 kts | 210° |
| 2026-05-08 00:03 | -31.46228 | -56.93977 | 35740 ft | 532 kts | 210° |
| 2026-05-08 00:04 | -31.53110 | -56.97091 | 35743 ft | 531 kts | 210° |
| 2026-05-08 00:04 | -31.59991 | -57.00209 | 35742 ft | 531 kts | 210° |
| 2026-05-08 00:05 | -31.66871 | -57.03331 | 35737 ft | 531 kts | 210° |
| 2026-05-08 00:05 | -31.73743 | -57.06455 | 35743 ft | 531 kts | 210° |
| 2026-05-08 00:06 | -31.80593 | -57.09648 | 35738 ft | 529 kts | 211° |
| 2026-05-08 00:06 | -31.87402 | -57.12911 | 35735 ft | 529 kts | 211° |
| 2026-05-08 00:07 | -31.94249 | -57.16090 | 35738 ft | 531 kts | 210° |
| 2026-05-08 00:07 | -32.01112 | -57.19238 | 35733 ft | 530 kts | 210° |
| 2026-05-08 00:08 | -32.07971 | -57.22396 | 35732 ft | 530 kts | 210° |
| 2026-05-08 00:08 | -32.14829 | -57.25558 | 35734 ft | 530 kts | 210° |
| 2026-05-08 00:09 | -32.21677 | -57.28721 | 35733 ft | 530 kts | 210° |
| 2026-05-08 00:09 | -32.28522 | -57.31887 | 35726 ft | 529 kts | 210° |
| 2026-05-08 00:10 | -32.35360 | -57.35055 | 35721 ft | 529 kts | 210° |
| 2026-05-08 00:10 | -32.42180 | -57.38220 | 35558 ft | 523 kts | 210° |
| 2026-05-08 00:11 | -32.45557 | -57.39791 | 34887 ft | 524 kts | 210° |
| 2026-05-08 00:11 | -32.48956 | -57.41372 | 34209 ft | 526 kts | 210° |
| 2026-05-08 00:11 | -32.52346 | -57.42949 | 33708 ft | 524 kts | 210° |
| 2026-05-08 00:11 | -32.55722 | -57.44521 | 33192 ft | 520 kts | 210° |
| 2026-05-08 00:12 | -32.59066 | -57.46079 | 32678 ft | 517 kts | 210° |
| 2026-05-08 00:12 | -32.62395 | -57.47633 | 32165 ft | 514 kts | 211° |
| 2026-05-08 00:12 | -32.65706 | -57.49179 | 31659 ft | 511 kts | 211° |
| 2026-05-08 00:12 | -32.68997 | -57.50717 | 31157 ft | 508 kts | 210° |
| 2026-05-08 00:13 | -32.72278 | -57.52251 | 30659 ft | 506 kts | 210° |
| 2026-05-08 00:13 | -32.75542 | -57.53778 | 30158 ft | 504 kts | 210° |
| 2026-05-08 00:13 | -32.78796 | -57.55303 | 29628 ft | 503 kts | 210° |
| 2026-05-08 00:13 | -32.82035 | -57.56821 | 29048 ft | 501 kts | 210° |
| 2026-05-08 00:14 | -32.85256 | -57.58332 | 28552 ft | 497 kts | 210° |
| 2026-05-08 00:14 | -32.88449 | -57.59831 | 28062 ft | 493 kts | 210° |
| 2026-05-08 00:14 | -32.91624 | -57.61323 | 27566 ft | 489 kts | 210° |
| 2026-05-08 00:14 | -32.94777 | -57.62806 | 27076 ft | 486 kts | 210° |
| 2026-05-08 00:15 | -32.97905 | -57.64277 | 26594 ft | 483 kts | 210° |
| 2026-05-08 00:15 | -33.01018 | -57.65744 | 26106 ft | 481 kts | 210° |
| 2026-05-08 00:15 | -33.04115 | -57.67203 | 25625 ft | 478 kts | 210° |
| 2026-05-08 00:15 | -33.07190 | -57.68654 | 25150 ft | 476 kts | 210° |
| 2026-05-08 00:16 | -33.10256 | -57.70101 | 24677 ft | 473 kts | 210° |
| 2026-05-08 00:16 | -33.13298 | -57.71538 | 24206 ft | 471 kts | 210° |
| 2026-05-08 00:16 | -33.16341 | -57.72976 | 23740 ft | 469 kts | 209° |
| 2026-05-08 00:16 | -33.19353 | -57.74401 | 23277 ft | 467 kts | 209° |
| 2026-05-08 00:17 | -33.22371 | -57.75830 | 22744 ft | 465 kts | 209° |
| 2026-05-08 00:17 | -33.25358 | -57.77245 | 22277 ft | 461 kts | 209° |
| 2026-05-08 00:17 | -33.28314 | -57.78645 | 21843 ft | 452 kts | 209° |
| 2026-05-08 00:17 | -33.31177 | -57.80004 | 21433 ft | 437 kts | 209° |
| 2026-05-08 00:18 | -33.33949 | -57.81320 | 21040 ft | 423 kts | 209° |
| 2026-05-08 00:18 | -33.36640 | -57.82599 | 20629 ft | 411 kts | 209° |
| 2026-05-08 00:18 | -33.39253 | -57.83841 | 20246 ft | 399 kts | 210° |
| 2026-05-08 00:18 | -33.41792 | -57.85049 | 19878 ft | 388 kts | 210° |
| 2026-05-08 00:19 | -33.44264 | -57.86226 | 19518 ft | 381 kts | 210° |
| 2026-05-08 00:19 | -33.46722 | -57.87396 | 19155 ft | 380 kts | 209° |
| 2026-05-08 00:19 | -33.49164 | -57.88560 | 18794 ft | 378 kts | 209° |
| 2026-05-08 00:19 | -33.51598 | -57.89720 | 18442 ft | 376 kts | 209° |
| 2026-05-08 00:20 | -33.54025 | -57.90877 | 18045 ft | 376 kts | 209° |
| 2026-05-08 00:20 | -33.56437 | -57.92026 | 17673 ft | 373 kts | 208° |
| 2026-05-08 00:20 | -33.58835 | -57.93169 | 17303 ft | 370 kts | 208° |
| 2026-05-08 00:20 | -33.61210 | -57.94301 | 16947 ft | 366 kts | 208° |
| 2026-05-08 00:21 | -33.63563 | -57.95424 | 16593 ft | 363 kts | 207° |
| 2026-05-08 00:21 | -33.65897 | -57.96539 | 16246 ft | 360 kts | 207° |
| 2026-05-08 00:21 | -33.68210 | -57.97643 | 15887 ft | 357 kts | 206° |
| 2026-05-08 00:21 | -33.70505 | -57.98741 | 15529 ft | 354 kts | 206° |
| 2026-05-08 00:22 | -33.72783 | -57.99829 | 15195 ft | 352 kts | 206° |
| 2026-05-08 00:22 | -33.75044 | -58.00911 | 14837 ft | 350 kts | 206° |
| 2026-05-08 00:22 | -33.77291 | -58.01988 | 14487 ft | 347 kts | 205° |
| 2026-05-08 00:22 | -33.79526 | -58.03059 | 14136 ft | 345 kts | 205° |
| 2026-05-08 00:23 | -33.81743 | -58.04121 | 13788 ft | 343 kts | 205° |
| 2026-05-08 00:23 | -33.83949 | -58.05180 | 13440 ft | 341 kts | 205° |
| 2026-05-08 00:23 | -33.86144 | -58.06233 | 13033 ft | 340 kts | 205° |
| 2026-05-08 00:23 | -33.88329 | -58.07283 | 12667 ft | 337 kts | 205° |
| 2026-05-08 00:24 | -33.90493 | -58.08323 | 12316 ft | 334 kts | 205° |
| 2026-05-08 00:24 | -33.92636 | -58.09353 | 11966 ft | 330 kts | 205° |
| 2026-05-08 00:24 | -33.94730 | -58.10359 | 11631 ft | 319 kts | 205° |
| 2026-05-08 00:24 | -33.96751 | -58.11332 | 11295 ft | 308 kts | 205° |
| 2026-05-08 00:25 | -33.98699 | -58.12270 | 10970 ft | 298 kts | 205° |
| 2026-05-08 00:25 | -34.00645 | -58.13117 | 10596 ft | 304 kts | 196° |
| 2026-05-08 00:25 | -34.02761 | -58.13297 | 10184 ft | 303 kts | 184° |
| 2026-05-08 00:25 | -34.04820 | -58.13383 | 9943 ft | 290 kts | 186° |
| 2026-05-08 00:26 | -34.06781 | -58.13499 | 9785 ft | 275 kts | 187° |
| 2026-05-08 00:26 | -34.08658 | -58.13622 | 9612 ft | 271 kts | 187° |
| 2026-05-08 00:26 | -34.10581 | -58.13757 | 9294 ft | 282 kts | 187° |
| 2026-05-08 00:26 | -34.12549 | -58.13901 | 8976 ft | 285 kts | 187° |
| 2026-05-08 00:27 | -34.14523 | -58.14046 | 8682 ft | 284 kts | 187° |
| 2026-05-08 00:27 | -34.16480 | -58.14191 | 8402 ft | 281 kts | 188° |
| 2026-05-08 00:27 | -34.18417 | -58.14335 | 8123 ft | 279 kts | 188° |
| 2026-05-08 00:27 | -34.20349 | -58.14480 | 7845 ft | 278 kts | 188° |
| 2026-05-08 00:28 | -34.22270 | -58.14623 | 7556 ft | 276 kts | 188° |
| 2026-05-08 00:28 | -34.24171 | -58.14766 | 7267 ft | 273 kts | 188° |
| 2026-05-08 00:28 | -34.26056 | -58.14906 | 6987 ft | 271 kts | 188° |
| 2026-05-08 00:28 | -34.27924 | -58.15046 | 6713 ft | 268 kts | 188° |
| 2026-05-08 00:29 | -34.29778 | -58.15186 | 6436 ft | 266 kts | 188° |
| 2026-05-08 00:29 | -34.31613 | -58.15325 | 6160 ft | 264 kts | 188° |
| 2026-05-08 00:29 | -34.33438 | -58.15461 | 5865 ft | 262 kts | 188° |
| 2026-05-08 00:29 | -34.35245 | -58.15597 | 5598 ft | 259 kts | 188° |
| 2026-05-08 00:30 | -34.37007 | -58.15729 | 5478 ft | 249 kts | 188° |
| 2026-05-08 00:30 | -34.38710 | -58.15856 | 5315 ft | 242 kts | 189° |
| 2026-05-08 00:30 | -34.40375 | -58.15982 | 5090 ft | 238 kts | 189° |
| 2026-05-08 00:30 | -34.42011 | -58.16105 | 4857 ft | 234 kts | 188° |
| 2026-05-08 00:31 | -34.43614 | -58.16224 | 4656 ft | 229 kts | 188° |
| 2026-05-08 00:31 | -34.45191 | -58.16343 | 4398 ft | 227 kts | 188° |
| 2026-05-08 00:31 | -34.46756 | -58.16461 | 4129 ft | 224 kts | 188° |
| 2026-05-08 00:31 | -34.48297 | -58.16578 | 3881 ft | 221 kts | 188° |
| 2026-05-08 00:32 | -34.49801 | -58.16690 | 3755 ft | 212 kts | 188° |
| 2026-05-08 00:32 | -34.51242 | -58.16798 | 3643 ft | 203 kts | 189° |
| 2026-05-08 00:32 | -34.52618 | -58.16902 | 3537 ft | 194 kts | 189° |
| 2026-05-08 00:32 | -34.53931 | -58.17001 | 3435 ft | 186 kts | 189° |
| 2026-05-08 00:33 | -34.55217 | -58.17099 | 3328 ft | 185 kts | 189° |
| 2026-05-08 00:33 | -34.56497 | -58.17196 | 3228 ft | 185 kts | 189° |
| 2026-05-08 00:33 | -34.57776 | -58.17292 | 3122 ft | 184 kts | 189° |
| 2026-05-08 00:33 | -34.59011 | -58.17559 | 2989 ft | 177 kts | 211° |
| 2026-05-08 00:34 | -34.59981 | -58.18341 | 2935 ft | 161 kts | 218° |
| 2026-05-08 00:34 | -34.60868 | -58.19119 | 2837 ft | 155 kts | 219° |
| 2026-05-08 00:34 | -34.61723 | -58.19894 | 2750 ft | 153 kts | 220° |
| 2026-05-08 00:34 | -34.62564 | -58.20677 | 2666 ft | 153 kts | 221° |
| 2026-05-08 00:35 | -34.63399 | -58.21466 | 2577 ft | 153 kts | 221° |
| 2026-05-08 00:35 | -34.64227 | -58.22257 | 2537 ft | 147 kts | 221° |
| 2026-05-08 00:35 | -34.64823 | -58.23196 | 2440 ft | 141 kts | 250° |
| 2026-05-08 00:35 | -34.64895 | -58.24359 | 2368 ft | 139 kts | 273° |
| 2026-05-08 00:36 | -34.64615 | -58.25492 | 2290 ft | 142 kts | 285° |
| 2026-05-08 00:36 | -34.64162 | -58.26570 | 2202 ft | 145 kts | 292° |
| 2026-05-08 00:36 | -34.63642 | -58.27618 | 2104 ft | 146 kts | 294° |
| 2026-05-08 00:36 | -34.63093 | -58.28649 | 1998 ft | 146 kts | 295° |
| 2026-05-08 00:37 | -34.62535 | -58.29667 | 1910 ft | 144 kts | 295° |
| 2026-05-08 00:37 | -34.61981 | -58.30671 | 1807 ft | 142 kts | 296° |
| 2026-05-08 00:37 | -34.61431 | -58.31668 | 1741 ft | 144 kts | 297° |
| 2026-05-08 00:38 | -34.60313 | -58.33687 | 1429 ft | 144 kts | 297° |
| 2026-05-08 00:38 | -34.59754 | -58.34694 | 1261 ft | 144 kts | 298° |
| 2026-05-08 00:38 | -34.59198 | -58.35694 | 1061 ft | 143 kts | 299° |
| 2026-05-08 00:38 | -34.58646 | -58.36684 | 847 ft | 141 kts | 298° |
| 2026-05-08 00:39 | -34.58097 | -58.37679 | 670 ft | 143 kts | 299° |
| 2026-05-08 00:39 | -34.57538 | -58.38692 | 436 ft | 146 kts | 301° |
| 2026-05-08 00:39 | -34.56960 | -58.39708 | 208 ft | 147 kts | 298° |
| 2026-05-08 00:39 | -34.56398 | -58.40730 | 42 ft | 142 kts | 300° |
| 2026-05-08 00:40 | -34.55936 | -58.41585 | 27 ft | 90 kts | 306° |
| 2026-05-08 00:40 | -34.55696 | -58.41992 | 28 ft | 32 kts | 305° |
| 2026-05-08 00:40 | -34.55590 | -58.42182 | 29 ft | 25 kts | 302° |
| 2026-05-08 00:40 | -34.55496 | -58.42347 | 30 ft | 22 kts | 303° |
| 2026-05-08 00:41 | -34.55420 | -58.42489 | 28 ft | 12 kts | 307° |
| 2026-05-08 00:41 | -34.55370 | -58.42472 | 28 ft | 9 kts | 73° |
| 2026-05-08 00:41 | -34.55369 | -58.42394 | 28 ft | 9 kts | 100° |
| 2026-05-08 00:41 | -34.55405 | -58.42318 | 28 ft | 12 kts | 126° |
| 2026-05-08 00:42 | -34.55460 | -58.42229 | 28 ft | 14 kts | 128° |
| 2026-05-08 00:42 | -34.55524 | -58.42128 | 28 ft | 16 kts | 126° |
| 2026-05-08 00:42 | -34.55589 | -58.42021 | 28 ft | 16 kts | 126° |
| 2026-05-08 00:42 | -34.55648 | -58.41912 | 28 ft | 15 kts | 124° |
| 2026-05-08 00:43 | -34.55704 | -58.41814 | 28 ft | 15 kts | 124° |
| 2026-05-08 00:43 | -34.55759 | -58.41697 | 28 ft | 16 kts | 116° |
| 2026-05-08 00:43 | -34.55812 | -58.41569 | 28 ft | 17 kts | 117° |
| 2026-05-08 00:43 | -34.55862 | -58.41452 | 28 ft | 16 kts | 117° |
| 2026-05-08 00:44 | -34.55907 | -58.41330 | 28 ft | 11 kts | 84° |
| 2026-05-08 00:44 | -34.55854 | -58.41286 | 28 ft | 9 kts | 350° |
| 2026-05-08 00:44 | -34.55817 | -58.41324 | 28 ft | 0 kts | 306° |
| 2026-05-08 00:45 | -34.55812 | -58.41332 | 28 ft | 3 kts | 304° |
| 2026-05-08 00:45 | -34.55796 | -58.41366 | 28 ft | 6 kts | 300° |
| 2026-05-08 00:46 | -34.55768 | -58.41416 | 28 ft | 8 kts | 309° |
| 2026-05-08 00:46 | -34.55738 | -58.41474 | 28 ft | 7 kts | 297° |
| 2026-05-08 00:46 | -34.55718 | -58.41494 | 28 ft | 3 kts | 356° |
| 2026-05-08 00:46 | -34.55699 | -58.41491 | 28 ft | 3 kts | 9° |
| 2026-05-08 00:47 | -34.55686 | -58.41488 | 28 ft | 2 kts | 12° |
| 2026-05-08 00:47 | -34.55682 | -58.41487 | 28 ft | 0 kts | 12° |